createdAt,value
2022-11-24T00:02:06.223Z,35.97
2022-11-24T00:04:54.602Z,38.40
2022-11-24T00:07:42.595Z,35.07
2022-11-24T00:10:30.718Z,34.77
2022-11-24T00:13:18.747Z,35.40
2022-11-24T00:16:11.491Z,37.97
2022-11-24T00:19:01.672Z,39.93
2022-11-24T00:21:49.606Z,39.83
2022-11-24T00:27:25.743Z,39.20
2022-11-24T01:34:47.626Z,32.10
2022-11-24T01:37:35.742Z,30.80
2022-11-24T01:40:25.323Z,33.67
2022-11-24T01:43:17.893Z,31.47
2022-11-24T01:46:15.103Z,32.00
2022-11-24T01:49:08.112Z,32.37
2022-11-24T01:51:59.338Z,32.20
2022-11-24T01:54:50.970Z,31.43
2022-11-24T01:57:44.695Z,31.30
2022-11-24T02:00:34.168Z,30.27
2022-11-24T02:03:26.537Z,31.30
2022-11-24T02:06:19.269Z,33.10
2022-11-24T02:09:12.964Z,31.33
2022-11-24T02:12:02.319Z,30.27
2022-11-24T02:14:52.587Z,30.47
2022-11-24T02:17:40.824Z,31.20
2022-11-24T02:20:28.984Z,31.70
2022-11-24T02:23:22.877Z,29.80
2022-11-24T02:26:20.055Z,29.80
2022-11-24T02:29:10.643Z,29.57
2022-11-24T02:46:04.926Z,32.87
2022-11-24T02:48:53.125Z,32.37
2022-11-24T02:51:41.105Z,31.70
2022-11-24T02:54:29.609Z,33.23
2022-11-24T02:57:17.875Z,33.57
2022-11-24T03:00:06.874Z,36.93
2022-11-24T03:02:56.177Z,35.17
2022-11-24T03:05:44.518Z,35.50
2022-11-24T03:08:32.774Z,35.30
2022-11-24T03:11:20.877Z,33.57
2022-11-24T03:14:09.572Z,33.70
2022-11-24T03:16:57.425Z,31.03
2022-11-24T03:19:46.697Z,33.93
2022-11-24T03:22:34.812Z,33.87
2022-11-24T03:25:22.731Z,32.40
2022-11-24T03:28:10.817Z,32.97
2022-11-24T03:30:59.335Z,31.30
2022-11-24T03:33:47.529Z,30.23
2022-11-24T03:36:37.327Z,31.27
2022-11-24T03:39:25.494Z,30.37
2022-11-24T03:42:13.289Z,31.10
2022-11-24T03:45:16.762Z,31.80
2022-11-24T03:48:09.872Z,30.00
2022-11-24T03:50:59.490Z,29.00
2022-11-24T03:53:48.923Z,28.77
2022-11-24T03:56:37.644Z,28.60
2022-11-24T03:59:25.601Z,29.77
2022-11-24T04:02:13.882Z,27.00
2022-11-24T04:05:01.814Z,27.47
2022-11-24T04:07:49.996Z,27.10
2022-11-24T04:10:40.651Z,31.30
2022-11-24T04:13:27.834Z,29.10
2022-11-24T04:16:16.277Z,27.33
2022-11-24T04:19:04.629Z,27.73
2022-11-24T04:21:52.780Z,28.80
2022-11-24T04:24:41.012Z,28.43
2022-11-24T04:27:30.856Z,27.37
2022-11-24T04:30:20.944Z,29.10
2022-11-24T04:33:09.014Z,28.67
2022-11-24T04:35:56.916Z,30.73
2022-11-24T04:39:19.814Z,28.50
2022-11-24T04:41:54.012Z,30.40
2022-11-24T04:44:43.542Z,29.33
2022-11-24T04:47:31.522Z,30.07
2022-11-24T04:50:19.763Z,29.03
2022-11-24T04:53:07.925Z,29.90
2022-11-24T04:55:56.059Z,30.20
2022-11-24T04:58:44.145Z,30.53
2022-11-24T05:01:34.257Z,30.07
2022-11-24T05:04:22.716Z,29.67
2022-11-24T05:07:17.977Z,30.07
2022-11-24T05:10:25.791Z,29.33
2022-11-24T05:13:14.852Z,28.33
2022-11-24T05:16:03.233Z,28.17
2022-11-24T05:18:52.639Z,28.67
2022-11-24T05:21:40.873Z,27.77
2022-11-24T05:24:28.970Z,25.83
2022-11-24T05:27:17.162Z,26.60
2022-11-24T05:30:06.128Z,26.20
2022-11-24T05:32:54.341Z,25.90
2022-11-24T05:35:43.658Z,26.13
2022-11-24T05:38:32.155Z,28.10
2022-11-24T05:41:19.984Z,27.50
2022-11-24T05:44:08.326Z,26.17
2022-11-24T05:46:56.418Z,30.13
2022-11-24T05:49:44.212Z,26.97
2022-11-24T05:52:34.018Z,26.97
2022-11-24T05:55:22.170Z,26.33
2022-11-24T05:58:11.118Z,27.93
2022-11-24T06:00:59.041Z,28.00
2022-11-24T06:03:46.912Z,25.53
2022-11-24T06:06:34.628Z,30.20
2022-11-24T06:09:24.261Z,33.10
2022-11-24T06:12:12.822Z,33.13
2022-11-24T06:15:00.529Z,30.70
2022-11-24T06:17:55.466Z,29.50
2022-11-24T06:20:53.175Z,26.53
2022-11-24T06:23:51.155Z,28.97
2022-11-24T06:26:40.325Z,28.70
2022-11-24T06:29:28.217Z,28.03
2022-11-24T06:32:16.305Z,29.97
2022-11-24T06:35:03.821Z,29.27
2022-11-24T06:37:51.622Z,28.90
2022-11-24T06:40:39.403Z,29.20
2022-11-24T06:43:30.131Z,31.00
2022-11-24T06:46:17.827Z,29.90
2022-11-24T06:49:06.054Z,29.73
2022-11-24T06:51:56.220Z,26.90
2022-11-24T06:54:43.728Z,28.97
2022-11-24T06:57:31.618Z,29.30
2022-11-24T07:00:21.498Z,29.40
2022-11-24T07:03:12.609Z,30.23
2022-11-24T07:06:00.962Z,33.80
2022-11-24T07:08:49.652Z,35.50
2022-11-24T07:11:37.668Z,33.27
2022-11-24T07:14:27.997Z,34.63
2022-11-24T07:17:17.169Z,36.30
2022-11-24T07:20:05.624Z,35.27
2022-11-24T07:22:57.299Z,34.93
2022-11-24T07:25:45.275Z,33.20
2022-11-24T07:28:33.116Z,30.27
2022-11-24T07:31:22.236Z,30.70
2022-11-24T07:34:11.483Z,29.60
2022-11-24T07:36:59.135Z,30.03
2022-11-24T07:39:46.735Z,30.30
2022-11-24T07:42:34.349Z,31.07
2022-11-24T07:45:22.400Z,30.50
2022-11-24T07:48:11.847Z,28.73
2022-11-24T07:51:02.548Z,30.57
2022-11-24T07:53:50.561Z,28.70
2022-11-24T07:56:38.417Z,33.30
2022-11-24T07:59:26.082Z,32.23
2022-11-24T08:02:14.535Z,33.03
2022-11-24T08:05:02.508Z,33.07
2022-11-24T08:07:52.084Z,33.70
2022-11-24T08:10:39.637Z,33.57
2022-11-24T08:13:27.527Z,32.23
2022-11-24T08:16:16.863Z,32.93
2022-11-24T08:19:04.679Z,34.40
2022-11-24T08:21:52.196Z,37.37
2022-11-24T08:24:46.555Z,36.43
2022-11-24T08:27:34.246Z,40.10
2022-11-24T08:30:22.170Z,38.23
2022-11-24T20:53:10.276Z,51.77
2022-11-24T20:56:06.130Z,67.37
2022-11-24T20:58:54.485Z,62.13
2022-11-24T21:01:45.440Z,56.47
2022-11-24T21:04:35.323Z,54.43
2022-11-24T21:07:23.403Z,51.20
2022-11-24T21:10:11.269Z,48.90
2022-11-24T21:13:00.500Z,47.10
2022-11-24T21:15:47.995Z,51.20
2022-11-24T21:32:36.896Z,48.10
2022-11-24T21:35:24.471Z,48.07
2022-11-24T21:38:12.456Z,47.70
2022-11-24T21:41:03.456Z,46.80
